sensor_id;sensor_type;location;lat;lon;timestamp;temperature;humidity
15900;DHT22;8048;50.644;6.184;2024-02-04T00:00:58;8.20;99.90
15900;DHT22;8048;50.644;6.184;2024-02-04T00:03:24;8.20;99.90
15900;DHT22;8048;50.644;6.184;2024-02-04T00:05:49;8.20;99.90
15900;DHT22;8048;50.644;6.184;2024-02-04T00:08:15;8.20;99.90
15900;DHT22;8048;50.644;6.184;2024-02-04T00:10:42;8.20;99.90
15900;DHT22;8048;50.644;6.184;2024-02-04T00:15:43;8.20;99.90
15900;DHT22;8048;50.644;6.184;2024-02-04T00:18:08;8.20;99.90
15900;DHT22;8048;50.644;6.184;2024-02-04T00:20:34;8.10;99.90
15900;DHT22;8048;50.644;6.184;2024-02-04T00:22:59;8.20;99.90
15900;DHT22;8048;50.644;6.184;2024-02-04T00:25:25;8.20;99.90
15900;DHT22;8048;50.644;6.184;2024-02-04T00:27:50;8.10;99.90
15900;DHT22;8048;50.644;6.184;2024-02-04T00:30:16;8.20;99.90
15900;DHT22;8048;50.644;6.184;2024-02-04T00:32:42;8.20;99.90
15900;DHT22;8048;50.644;6.184;2024-02-04T00:35:07;8.20;99.90
15900;DHT22;8048;50.644;6.184;2024-02-04T00:37:33;8.20;99.90
15900;DHT22;8048;50.644;6.184;2024-02-04T00:39:58;8.20;99.90
15900;DHT22;8048;50.644;6.184;2024-02-04T00:44:57;8.20;99.90
15900;DHT22;8048;50.644;6.184;2024-02-04T00:47:22;8.20;99.90
15900;DHT22;8048;50.644;6.184;2024-02-04T00:49:48;8.20;99.90
15900;DHT22;8048;50.644;6.184;2024-02-04T00:54:41;8.10;99.90
15900;DHT22;8048;50.644;6.184;2024-02-04T00:57:07;8.20;99.90
15900;DHT22;8048;50.644;6.184;2024-02-04T00:59:32;8.10;99.90
15900;DHT22;8048;50.644;6.184;2024-02-04T01:01:58;8.20;99.90
15900;DHT22;8048;50.644;6.184;2024-02-04T01:09:35;8.20;99.90
15900;DHT22;8048;50.644;6.184;2024-02-04T01:12:01;8.20;99.90
15900;DHT22;8048;50.644;6.184;2024-02-04T01:14:26;8.20;99.90
15900;DHT22;8048;50.644;6.184;2024-02-04T01:16:52;8.20;99.90
15900;DHT22;8048;50.644;6.184;2024-02-04T01:19:17;8.20;99.90
15900;DHT22;8048;50.644;6.184;2024-02-04T01:21:43;8.20;99.90
15900;DHT22;8048;50.644;6.184;2024-02-04T01:24:09;8.20;99.90
15900;DHT22;8048;50.644;6.184;2024-02-04T01:26:35;8.20;99.90
15900;DHT22;8048;50.644;6.184;2024-02-04T01:29:00;8.20;99.90
15900;DHT22;8048;50.644;6.184;2024-02-04T01:31:27;8.20;99.90
15900;DHT22;8048;50.644;6.184;2024-02-04T01:33:52;8.20;99.90
15900;DHT22;8048;50.644;6.184;2024-02-04T01:36:18;8.20;99.90
15900;DHT22;8048;50.644;6.184;2024-02-04T01:38:43;8.20;99.90
15900;DHT22;8048;50.644;6.184;2024-02-04T01:41:09;8.20;99.90
15900;DHT22;8048;50.644;6.184;2024-02-04T01:43:34;8.20;99.90
15900;DHT22;8048;50.644;6.184;2024-02-04T01:46:00;8.30;99.90
15900;DHT22;8048;50.644;6.184;2024-02-04T01:48:25;8.20;99.90
15900;DHT22;8048;50.644;6.184;2024-02-04T01:50:53;8.30;99.90
15900;DHT22;8048;50.644;6.184;2024-02-04T01:53:21;8.30;99.90
15900;DHT22;8048;50.644;6.184;2024-02-04T01:55:47;8.30;99.90
15900;DHT22;8048;50.644;6.184;2024-02-04T01:58:14;8.30;99.90
15900;DHT22;8048;50.644;6.184;2024-02-04T02:00:40;8.30;99.90
15900;DHT22;8048;50.644;6.184;2024-02-04T02:03:06;8.30;99.90
15900;DHT22;8048;50.644;6.184;2024-02-04T02:05:34;8.30;99.90
15900;DHT22;8048;50.644;6.184;2024-02-04T02:08:00;8.30;99.90
15900;DHT22;8048;50.644;6.184;2024-02-04T02:10:26;8.30;99.90
15900;DHT22;8048;50.644;6.184;2024-02-04T02:13:11;8.30;99.90
15900;DHT22;8048;50.644;6.184;2024-02-04T02:15:48;8.30;99.90
15900;DHT22;8048;50.644;6.184;2024-02-04T02:26:48;8.30;99.90
15900;DHT22;8048;50.644;6.184;2024-02-04T02:29:14;8.30;99.90
15900;DHT22;8048;50.644;6.184;2024-02-04T02:31:41;8.30;99.90
15900;DHT22;8048;50.644;6.184;2024-02-04T02:34:08;8.30;99.90
15900;DHT22;8048;50.644;6.184;2024-02-04T02:36:41;8.30;99.90
15900;DHT22;8048;50.644;6.184;2024-02-04T02:39:15;8.30;99.90
15900;DHT22;8048;50.644;6.184;2024-02-04T02:41:43;8.30;99.90
15900;DHT22;8048;50.644;6.184;2024-02-04T02:44:09;8.30;99.90
15900;DHT22;8048;50.644;6.184;2024-02-04T02:46:36;8.40;99.90
15900;DHT22;8048;50.644;6.184;2024-02-04T02:49:02;8.50;99.90
15900;DHT22;8048;50.644;6.184;2024-02-04T02:51:28;8.40;99.90
15900;DHT22;8048;50.644;6.184;2024-02-04T02:53:54;8.50;99.90
15900;DHT22;8048;50.644;6.184;2024-02-04T02:56:19;8.40;99.90
15900;DHT22;8048;50.644;6.184;2024-02-04T02:58:45;8.50;99.90
15900;DHT22;8048;50.644;6.184;2024-02-04T03:01:10;8.40;99.90
15900;DHT22;8048;50.644;6.184;2024-02-04T03:03:36;8.40;99.90
15900;DHT22;8048;50.644;6.184;2024-02-04T03:06:01;8.50;99.90
15900;DHT22;8048;50.644;6.184;2024-02-04T03:08:27;8.40;99.90
15900;DHT22;8048;50.644;6.184;2024-02-04T03:10:52;8.50;99.90
15900;DHT22;8048;50.644;6.184;2024-02-04T03:13:18;8.50;99.90
15900;DHT22;8048;50.644;6.184;2024-02-04T03:15:44;8.50;99.90
15900;DHT22;8048;50.644;6.184;2024-02-04T03:18:10;8.50;99.90
15900;DHT22;8048;50.644;6.184;2024-02-04T03:20:35;8.50;99.90
15900;DHT22;8048;50.644;6.184;2024-02-04T03:23:01;8.50;99.90
15900;DHT22;8048;50.644;6.184;2024-02-04T03:25:26;8.50;99.90
15900;DHT22;8048;50.644;6.184;2024-02-04T03:27:54;8.50;99.90
15900;DHT22;8048;50.644;6.184;2024-02-04T03:30:20;8.50;99.90
15900;DHT22;8048;50.644;6.184;2024-02-04T03:32:45;8.50;99.90
15900;DHT22;8048;50.644;6.184;2024-02-04T03:35:11;8.50;99.90
15900;DHT22;8048;50.644;6.184;2024-02-04T03:37:36;8.50;99.90
15900;DHT22;8048;50.644;6.184;2024-02-04T03:40:02;8.50;99.90
15900;DHT22;8048;50.644;6.184;2024-02-04T03:42:28;8.60;99.90
15900;DHT22;8048;50.644;6.184;2024-02-04T03:44:54;8.60;99.90
15900;DHT22;8048;50.644;6.184;2024-02-04T03:47:19;8.60;99.90
15900;DHT22;8048;50.644;6.184;2024-02-04T03:49:45;8.60;99.90
15900;DHT22;8048;50.644;6.184;2024-02-04T03:54:38;8.60;99.90
15900;DHT22;8048;50.644;6.184;2024-02-04T03:57:04;8.50;99.90
15900;DHT22;8048;50.644;6.184;2024-02-04T03:59:29;8.60;99.90
15900;DHT22;8048;50.644;6.184;2024-02-04T04:01:55;8.60;99.90
15900;DHT22;8048;50.644;6.184;2024-02-04T04:04:23;8.60;99.90
15900;DHT22;8048;50.644;6.184;2024-02-04T04:06:48;8.60;99.90
15900;DHT22;8048;50.644;6.184;2024-02-04T04:09:14;8.50;99.90
15900;DHT22;8048;50.644;6.184;2024-02-04T04:11:40;8.60;99.90
15900;DHT22;8048;50.644;6.184;2024-02-04T04:14:06;8.60;99.90
15900;DHT22;8048;50.644;6.184;2024-02-04T04:16:31;8.60;99.90
15900;DHT22;8048;50.644;6.184;2024-02-04T04:18:57;8.60;99.90
15900;DHT22;8048;50.644;6.184;2024-02-04T04:21:24;8.50;99.90
15900;DHT22;8048;50.644;6.184;2024-02-04T04:23:49;8.50;99.90
15900;DHT22;8048;50.644;6.184;2024-02-04T04:26:15;8.60;99.90
15900;DHT22;8048;50.644;6.184;2024-02-04T04:28:41;8.50;99.90
15900;DHT22;8048;50.644;6.184;2024-02-04T04:31:06;8.50;99.90
15900;DHT22;8048;50.644;6.184;2024-02-04T04:33:32;8.60;99.90
15900;DHT22;8048;50.644;6.184;2024-02-04T04:35:57;8.60;99.90
15900;DHT22;8048;50.644;6.184;2024-02-04T04:38:23;8.60;99.90
15900;DHT22;8048;50.644;6.184;2024-02-04T04:40:48;8.50;99.90
15900;DHT22;8048;50.644;6.184;2024-02-04T04:43:14;8.60;99.90
15900;DHT22;8048;50.644;6.184;2024-02-04T04:45:40;8.50;99.90
15900;DHT22;8048;50.644;6.184;2024-02-04T04:48:06;8.60;99.90
15900;DHT22;8048;50.644;6.184;2024-02-04T04:50:33;8.60;99.90
15900;DHT22;8048;50.644;6.184;2024-02-04T04:52:59;8.50;99.90
15900;DHT22;8048;50.644;6.184;2024-02-04T04:55:24;8.50;99.90
15900;DHT22;8048;50.644;6.184;2024-02-04T04:57:50;8.50;99.90
15900;DHT22;8048;50.644;6.184;2024-02-04T05:00:17;8.50;99.90
15900;DHT22;8048;50.644;6.184;2024-02-04T05:02:43;8.50;99.90
15900;DHT22;8048;50.644;6.184;2024-02-04T05:05:13;8.50;99.90
15900;DHT22;8048;50.644;6.184;2024-02-04T05:07:39;8.50;99.90
15900;DHT22;8048;50.644;6.184;2024-02-04T05:10:05;8.50;99.90
15900;DHT22;8048;50.644;6.184;2024-02-04T05:12:32;8.50;99.90
15900;DHT22;8048;50.644;6.184;2024-02-04T05:14:58;8.50;99.90
15900;DHT22;8048;50.644;6.184;2024-02-04T05:17:24;8.50;99.90
15900;DHT22;8048;50.644;6.184;2024-02-04T05:19:49;8.50;99.90
15900;DHT22;8048;50.644;6.184;2024-02-04T05:22:15;8.50;99.90
15900;DHT22;8048;50.644;6.184;2024-02-04T05:24:41;8.50;99.90
15900;DHT22;8048;50.644;6.184;2024-02-04T05:27:07;8.50;99.90
15900;DHT22;8048;50.644;6.184;2024-02-04T05:29:33;8.50;99.90
15900;DHT22;8048;50.644;6.184;2024-02-04T05:31:58;8.50;99.90
15900;DHT22;8048;50.644;6.184;2024-02-04T05:34:24;8.50;99.90
15900;DHT22;8048;50.644;6.184;2024-02-04T05:36:50;8.50;99.90
15900;DHT22;8048;50.644;6.184;2024-02-04T05:39:16;8.40;99.90
15900;DHT22;8048;50.644;6.184;2024-02-04T05:41:42;8.50;99.90
15900;DHT22;8048;50.644;6.184;2024-02-04T05:44:09;8.50;99.90
15900;DHT22;8048;50.644;6.184;2024-02-04T05:46:38;8.50;99.90
15900;DHT22;8048;50.644;6.184;2024-02-04T05:49:04;8.50;99.90
15900;DHT22;8048;50.644;6.184;2024-02-04T05:51:32;8.40;99.90
15900;DHT22;8048;50.644;6.184;2024-02-04T05:53:58;8.50;99.90
15900;DHT22;8048;50.644;6.184;2024-02-04T05:56:23;8.50;99.90
15900;DHT22;8048;50.644;6.184;2024-02-04T05:58:49;8.50;99.90
15900;DHT22;8048;50.644;6.184;2024-02-04T06:01:15;8.50;99.90
15900;DHT22;8048;50.644;6.184;2024-02-04T06:03:42;8.50;99.90
15900;DHT22;8048;50.644;6.184;2024-02-04T06:06:10;8.50;99.90
15900;DHT22;8048;50.644;6.184;2024-02-04T06:08:39;8.40;99.90
15900;DHT22;8048;50.644;6.184;2024-02-04T06:11:04;8.40;99.90
15900;DHT22;8048;50.644;6.184;2024-02-04T06:13:30;8.40;99.90
15900;DHT22;8048;50.644;6.184;2024-02-04T06:15:55;8.40;99.90
15900;DHT22;8048;50.644;6.184;2024-02-04T06:18:21;8.40;99.90
15900;DHT22;8048;50.644;6.184;2024-02-04T06:20:46;8.30;99.90
15900;DHT22;8048;50.644;6.184;2024-02-04T06:23:12;8.40;99.90
15900;DHT22;8048;50.644;6.184;2024-02-04T06:25:38;8.40;99.90
15900;DHT22;8048;50.644;6.184;2024-02-04T06:28:03;8.40;99.90
15900;DHT22;8048;50.644;6.184;2024-02-04T06:30:29;8.40;99.90
15900;DHT22;8048;50.644;6.184;2024-02-04T06:32:54;8.30;99.90
15900;DHT22;8048;50.644;6.184;2024-02-04T06:35:22;8.40;99.90
15900;DHT22;8048;50.644;6.184;2024-02-04T06:37:47;8.40;99.90
15900;DHT22;8048;50.644;6.184;2024-02-04T06:40:13;8.40;99.90
15900;DHT22;8048;50.644;6.184;2024-02-04T06:42:38;8.40;99.90
15900;DHT22;8048;50.644;6.184;2024-02-04T06:45:04;8.40;99.90
15900;DHT22;8048;50.644;6.184;2024-02-04T06:47:30;8.40;99.90
15900;DHT22;8048;50.644;6.184;2024-02-04T06:49:55;8.40;99.90
15900;DHT22;8048;50.644;6.184;2024-02-04T06:52:21;8.40;99.90
15900;DHT22;8048;50.644;6.184;2024-02-04T06:54:46;8.30;99.90
15900;DHT22;8048;50.644;6.184;2024-02-04T06:57:12;8.40;99.90
15900;DHT22;8048;50.644;6.184;2024-02-04T06:59:37;8.30;99.90
15900;DHT22;8048;50.644;6.184;2024-02-04T07:02:03;8.40;99.90
15900;DHT22;8048;50.644;6.184;2024-02-04T07:04:29;8.30;99.90
15900;DHT22;8048;50.644;6.184;2024-02-04T07:06:54;8.40;99.90
15900;DHT22;8048;50.644;6.184;2024-02-04T07:09:20;8.40;99.90
15900;DHT22;8048;50.644;6.184;2024-02-04T07:11:45;8.40;99.90
15900;DHT22;8048;50.644;6.184;2024-02-04T07:14:11;8.40;99.90
15900;DHT22;8048;50.644;6.184;2024-02-04T07:16:37;8.40;99.90
15900;DHT22;8048;50.644;6.184;2024-02-04T07:19:02;8.40;99.90
15900;DHT22;8048;50.644;6.184;2024-02-04T07:21:28;8.40;99.90
15900;DHT22;8048;50.644;6.184;2024-02-04T07:23:53;8.40;99.90
15900;DHT22;8048;50.644;6.184;2024-02-04T07:26:19;8.40;99.90
15900;DHT22;8048;50.644;6.184;2024-02-04T07:28:44;8.40;99.90
15900;DHT22;8048;50.644;6.184;2024-02-04T07:31:10;8.40;99.90
15900;DHT22;8048;50.644;6.184;2024-02-04T07:33:36;8.40;99.90
15900;DHT22;8048;50.644;6.184;2024-02-04T07:36:02;8.40;99.90
15900;DHT22;8048;50.644;6.184;2024-02-04T07:38:27;8.40;99.90
15900;DHT22;8048;50.644;6.184;2024-02-04T07:40:53;8.40;99.90
15900;DHT22;8048;50.644;6.184;2024-02-04T07:43:20;8.40;99.90
15900;DHT22;8048;50.644;6.184;2024-02-04T07:45:46;8.80;99.90
15900;DHT22;8048;50.644;6.184;2024-02-04T07:48:11;8.50;99.90
15900;DHT22;8048;50.644;6.184;2024-02-04T07:50:37;8.40;99.90
15900;DHT22;8048;50.644;6.184;2024-02-04T07:53:03;8.40;99.90
15900;DHT22;8048;50.644;6.184;2024-02-04T07:55:29;8.40;99.90
15900;DHT22;8048;50.644;6.184;2024-02-04T07:57:54;8.40;99.90
15900;DHT22;8048;50.644;6.184;2024-02-04T08:00:20;8.40;99.90
15900;DHT22;8048;50.644;6.184;2024-02-04T08:02:45;8.40;99.90
15900;DHT22;8048;50.644;6.184;2024-02-04T08:05:12;8.50;99.90
15900;DHT22;8048;50.644;6.184;2024-02-04T08:07:38;8.40;99.90
15900;DHT22;8048;50.644;6.184;2024-02-04T08:10:04;8.50;99.90
15900;DHT22;8048;50.644;6.184;2024-02-04T08:12:29;8.50;99.90
15900;DHT22;8048;50.644;6.184;2024-02-04T08:14:55;8.50;99.90
15900;DHT22;8048;50.644;6.184;2024-02-04T08:17:20;8.50;99.90
15900;DHT22;8048;50.644;6.184;2024-02-04T08:19:46;8.50;99.90
15900;DHT22;8048;50.644;6.184;2024-02-04T08:22:12;8.50;99.90
15900;DHT22;8048;50.644;6.184;2024-02-04T08:24:38;8.50;99.90
15900;DHT22;8048;50.644;6.184;2024-02-04T08:27:04;8.50;99.90
15900;DHT22;8048;50.644;6.184;2024-02-04T08:29:29;8.50;99.90
15900;DHT22;8048;50.644;6.184;2024-02-04T08:31:55;8.50;99.90
15900;DHT22;8048;50.644;6.184;2024-02-04T08:34:20;8.50;99.90
15900;DHT22;8048;50.644;6.184;2024-02-04T08:36:49;8.50;99.90
15900;DHT22;8048;50.644;6.184;2024-02-04T08:39:15;8.50;99.90
15900;DHT22;8048;50.644;6.184;2024-02-04T08:41:41;8.50;99.90
15900;DHT22;8048;50.644;6.184;2024-02-04T08:44:07;8.50;99.90
15900;DHT22;8048;50.644;6.184;2024-02-04T08:46:32;8.50;99.90
15900;DHT22;8048;50.644;6.184;2024-02-04T08:48:58;8.50;99.90
15900;DHT22;8048;50.644;6.184;2024-02-04T08:51:23;8.50;99.90
15900;DHT22;8048;50.644;6.184;2024-02-04T08:53:49;8.50;99.90
15900;DHT22;8048;50.644;6.184;2024-02-04T08:56:14;8.50;99.90
15900;DHT22;8048;50.644;6.184;2024-02-04T08:58:40;8.50;99.90
15900;DHT22;8048;50.644;6.184;2024-02-04T09:01:06;8.50;99.90
15900;DHT22;8048;50.644;6.184;2024-02-04T09:03:32;8.50;99.90
15900;DHT22;8048;50.644;6.184;2024-02-04T09:05:58;8.50;99.90
15900;DHT22;8048;50.644;6.184;2024-02-04T09:08:23;8.50;99.90
15900;DHT22;8048;50.644;6.184;2024-02-04T09:10:49;8.60;99.90
15900;DHT22;8048;50.644;6.184;2024-02-04T09:13:14;8.60;99.90
15900;DHT22;8048;50.644;6.184;2024-02-04T09:15:40;8.50;99.90
15900;DHT22;8048;50.644;6.184;2024-02-04T09:18:05;8.60;99.90
15900;DHT22;8048;50.644;6.184;2024-02-04T09:20:31;8.60;99.90
15900;DHT22;8048;50.644;6.184;2024-02-04T09:22:57;8.60;99.90
15900;DHT22;8048;50.644;6.184;2024-02-04T09:25:24;8.60;99.90
15900;DHT22;8048;50.644;6.184;2024-02-04T09:27:49;8.60;99.90
15900;DHT22;8048;50.644;6.184;2024-02-04T09:30:15;8.60;99.90
15900;DHT22;8048;50.644;6.184;2024-02-04T09:32:40;8.60;99.90
15900;DHT22;8048;50.644;6.184;2024-02-04T09:35:06;8.70;99.90
15900;DHT22;8048;50.644;6.184;2024-02-04T09:37:32;8.60;99.90
15900;DHT22;8048;50.644;6.184;2024-02-04T09:39:57;8.60;99.90
15900;DHT22;8048;50.644;6.184;2024-02-04T09:42:23;8.60;99.90
15900;DHT22;8048;50.644;6.184;2024-02-04T09:44:50;8.60;99.90
15900;DHT22;8048;50.644;6.184;2024-02-04T09:47:15;8.70;99.90
15900;DHT22;8048;50.644;6.184;2024-02-04T09:49:42;8.70;99.90
15900;DHT22;8048;50.644;6.184;2024-02-04T09:52:09;8.70;99.90
15900;DHT22;8048;50.644;6.184;2024-02-04T09:54:44;8.70;99.90
15900;DHT22;8048;50.644;6.184;2024-02-04T09:57:10;8.80;99.90
15900;DHT22;8048;50.644;6.184;2024-02-04T09:59:35;8.80;99.90
15900;DHT22;8048;50.644;6.184;2024-02-04T10:02:03;8.80;99.90
15900;DHT22;8048;50.644;6.184;2024-02-04T10:04:29;8.80;99.90
15900;DHT22;8048;50.644;6.184;2024-02-04T10:06:54;8.80;99.90
15900;DHT22;8048;50.644;6.184;2024-02-04T10:09:20;8.80;99.90
15900;DHT22;8048;50.644;6.184;2024-02-04T10:11:46;8.80;99.90
15900;DHT22;8048;50.644;6.184;2024-02-04T10:14:11;8.80;99.90
15900;DHT22;8048;50.644;6.184;2024-02-04T10:16:37;8.80;99.90
15900;DHT22;8048;50.644;6.184;2024-02-04T10:19:03;8.80;99.90
15900;DHT22;8048;50.644;6.184;2024-02-04T10:21:28;8.90;99.90
15900;DHT22;8048;50.644;6.184;2024-02-04T10:23:54;8.90;99.90
15900;DHT22;8048;50.644;6.184;2024-02-04T10:26:22;8.80;99.90
15900;DHT22;8048;50.644;6.184;2024-02-04T10:28:48;8.90;99.90
15900;DHT22;8048;50.644;6.184;2024-02-04T10:31:14;8.80;99.90
15900;DHT22;8048;50.644;6.184;2024-02-04T10:33:39;8.90;99.90
15900;DHT22;8048;50.644;6.184;2024-02-04T10:36:05;8.90;99.90
15900;DHT22;8048;50.644;6.184;2024-02-04T10:38:34;8.90;99.90
15900;DHT22;8048;50.644;6.184;2024-02-04T10:41:01;8.90;99.90
15900;DHT22;8048;50.644;6.184;2024-02-04T10:43:34;8.90;99.90
15900;DHT22;8048;50.644;6.184;2024-02-04T10:46:23;9.00;99.90
15900;DHT22;8048;50.644;6.184;2024-02-04T10:49:00;8.90;99.90
15900;DHT22;8048;50.644;6.184;2024-02-04T10:51:27;8.90;99.90
15900;DHT22;8048;50.644;6.184;2024-02-04T10:53:55;8.90;99.90
15900;DHT22;8048;50.644;6.184;2024-02-04T10:56:30;8.90;99.90
15900;DHT22;8048;50.644;6.184;2024-02-04T10:58:57;8.90;99.90
15900;DHT22;8048;50.644;6.184;2024-02-04T11:01:26;8.90;99.90
15900;DHT22;8048;50.644;6.184;2024-02-04T11:03:52;8.90;99.90
15900;DHT22;8048;50.644;6.184;2024-02-04T11:06:20;9.00;99.90
15900;DHT22;8048;50.644;6.184;2024-02-04T11:08:46;9.00;99.90
15900;DHT22;8048;50.644;6.184;2024-02-04T11:11:12;8.90;99.90
15900;DHT22;8048;50.644;6.184;2024-02-04T11:13:40;8.90;99.90
15900;DHT22;8048;50.644;6.184;2024-02-04T11:16:15;8.90;99.90
15900;DHT22;8048;50.644;6.184;2024-02-04T11:24:59;8.90;99.90
15900;DHT22;8048;50.644;6.184;2024-02-04T11:27:28;8.90;99.90
15900;DHT22;8048;50.644;6.184;2024-02-04T11:29:54;8.90;99.90
15900;DHT22;8048;50.644;6.184;2024-02-04T11:32:20;9.00;99.90
15900;DHT22;8048;50.644;6.184;2024-02-04T11:34:46;9.00;99.90
15900;DHT22;8048;50.644;6.184;2024-02-04T11:37:16;8.90;99.90
15900;DHT22;8048;50.644;6.184;2024-02-04T11:39:53;8.90;99.90
15900;DHT22;8048;50.644;6.184;2024-02-04T11:42:23;9.00;99.90
15900;DHT22;8048;50.644;6.184;2024-02-04T11:44:49;9.00;99.90
15900;DHT22;8048;50.644;6.184;2024-02-04T11:47:27;9.00;99.90
15900;DHT22;8048;50.644;6.184;2024-02-04T11:49:56;9.00;99.90
15900;DHT22;8048;50.644;6.184;2024-02-04T11:52:22;9.00;99.90
15900;DHT22;8048;50.644;6.184;2024-02-04T11:54:48;8.90;99.90
15900;DHT22;8048;50.644;6.184;2024-02-04T11:57:14;8.90;99.90
15900;DHT22;8048;50.644;6.184;2024-02-04T11:59:42;8.90;99.90
15900;DHT22;8048;50.644;6.184;2024-02-04T12:02:08;9.00;99.90
15900;DHT22;8048;50.644;6.184;2024-02-04T12:04:34;9.00;99.90
15900;DHT22;8048;50.644;6.184;2024-02-04T12:07:01;8.90;99.90
15900;DHT22;8048;50.644;6.184;2024-02-04T12:09:28;8.90;99.90
15900;DHT22;8048;50.644;6.184;2024-02-04T12:11:54;8.90;99.90
15900;DHT22;8048;50.644;6.184;2024-02-04T12:14:20;8.90;99.90
15900;DHT22;8048;50.644;6.184;2024-02-04T12:16:46;8.90;99.90
15900;DHT22;8048;50.644;6.184;2024-02-04T12:19:12;8.90;99.90
15900;DHT22;8048;50.644;6.184;2024-02-04T12:21:37;8.90;99.90
15900;DHT22;8048;50.644;6.184;2024-02-04T12:24:04;9.00;99.90
15900;DHT22;8048;50.644;6.184;2024-02-04T12:26:30;9.00;99.90
15900;DHT22;8048;50.644;6.184;2024-02-04T12:28:55;9.00;99.90
15900;DHT22;8048;50.644;6.184;2024-02-04T12:31:24;9.00;99.90
15900;DHT22;8048;50.644;6.184;2024-02-04T12:33:56;9.00;99.90
15900;DHT22;8048;50.644;6.184;2024-02-04T12:36:30;8.90;99.90
15900;DHT22;8048;50.644;6.184;2024-02-04T12:38:57;8.90;99.90
15900;DHT22;8048;50.644;6.184;2024-02-04T12:41:24;8.90;99.90
15900;DHT22;8048;50.644;6.184;2024-02-04T12:44:08;8.90;99.90
15900;DHT22;8048;50.644;6.184;2024-02-04T12:46:34;8.90;99.90
15900;DHT22;8048;50.644;6.184;2024-02-04T12:48:59;8.90;99.90
15900;DHT22;8048;50.644;6.184;2024-02-04T12:51:32;8.90;99.90
15900;DHT22;8048;50.644;6.184;2024-02-04T12:54:07;8.90;99.90
15900;DHT22;8048;50.644;6.184;2024-02-04T12:57:00;8.90;99.90
15900;DHT22;8048;50.644;6.184;2024-02-04T12:59:32;8.90;99.90
15900;DHT22;8048;50.644;6.184;2024-02-04T13:02:02;8.90;99.90
15900;DHT22;8048;50.644;6.184;2024-02-04T13:07:00;9.00;99.90
15900;DHT22;8048;50.644;6.184;2024-02-04T13:09:26;9.00;99.90
15900;DHT22;8048;50.644;6.184;2024-02-04T13:11:51;9.00;99.90
15900;DHT22;8048;50.644;6.184;2024-02-04T13:14:17;9.00;99.90
15900;DHT22;8048;50.644;6.184;2024-02-04T13:16:43;9.00;99.90
15900;DHT22;8048;50.644;6.184;2024-02-04T13:19:08;9.00;99.90
15900;DHT22;8048;50.644;6.184;2024-02-04T13:21:34;9.00;99.90
15900;DHT22;8048;50.644;6.184;2024-02-04T13:23:59;9.10;99.90
15900;DHT22;8048;50.644;6.184;2024-02-04T13:26:25;9.00;99.90
15900;DHT22;8048;50.644;6.184;2024-02-04T13:28:51;9.00;99.90
15900;DHT22;8048;50.644;6.184;2024-02-04T13:31:16;9.10;99.90
15900;DHT22;8048;50.644;6.184;2024-02-04T13:33:42;9.10;99.90
15900;DHT22;8048;50.644;6.184;2024-02-04T13:36:07;9.10;99.90
15900;DHT22;8048;50.644;6.184;2024-02-04T13:38:34;9.10;99.90
15900;DHT22;8048;50.644;6.184;2024-02-04T13:41:00;9.10;99.90
15900;DHT22;8048;50.644;6.184;2024-02-04T13:43:26;9.20;99.90
15900;DHT22;8048;50.644;6.184;2024-02-04T13:45:52;9.10;99.90
15900;DHT22;8048;50.644;6.184;2024-02-04T13:48:17;9.20;99.90
15900;DHT22;8048;50.644;6.184;2024-02-04T13:50:44;9.10;99.90
15900;DHT22;8048;50.644;6.184;2024-02-04T13:53:10;9.10;99.90
15900;DHT22;8048;50.644;6.184;2024-02-04T13:55:36;9.10;99.90
15900;DHT22;8048;50.644;6.184;2024-02-04T13:58:03;9.10;99.90
15900;DHT22;8048;50.644;6.184;2024-02-04T14:00:28;9.10;99.90
15900;DHT22;8048;50.644;6.184;2024-02-04T14:02:54;9.00;99.90
15900;DHT22;8048;50.644;6.184;2024-02-04T14:05:20;9.00;99.90
15900;DHT22;8048;50.644;6.184;2024-02-04T14:07:45;9.10;99.90
15900;DHT22;8048;50.644;6.184;2024-02-04T14:10:11;9.10;99.90
15900;DHT22;8048;50.644;6.184;2024-02-04T14:12:38;9.10;99.90
15900;DHT22;8048;50.644;6.184;2024-02-04T14:15:05;9.10;99.90
15900;DHT22;8048;50.644;6.184;2024-02-04T14:17:32;9.10;99.90
15900;DHT22;8048;50.644;6.184;2024-02-04T14:19:57;9.10;99.90
15900;DHT22;8048;50.644;6.184;2024-02-04T14:22:24;9.10;99.90
15900;DHT22;8048;50.644;6.184;2024-02-04T14:24:50;9.10;99.90
15900;DHT22;8048;50.644;6.184;2024-02-04T14:27:15;9.10;99.90
15900;DHT22;8048;50.644;6.184;2024-02-04T14:29:41;9.10;99.90
15900;DHT22;8048;50.644;6.184;2024-02-04T14:32:07;9.20;99.90
15900;DHT22;8048;50.644;6.184;2024-02-04T14:34:34;9.20;99.90
15900;DHT22;8048;50.644;6.184;2024-02-04T14:36:59;9.10;99.90
15900;DHT22;8048;50.644;6.184;2024-02-04T14:39:25;9.20;99.90
15900;DHT22;8048;50.644;6.184;2024-02-04T14:41:51;9.20;99.90
15900;DHT22;8048;50.644;6.184;2024-02-04T14:44:19;9.20;99.90
15900;DHT22;8048;50.644;6.184;2024-02-04T14:46:45;9.20;99.90
15900;DHT22;8048;50.644;6.184;2024-02-04T14:49:11;9.10;99.90
15900;DHT22;8048;50.644;6.184;2024-02-04T14:51:40;9.20;99.90
15900;DHT22;8048;50.644;6.184;2024-02-04T14:54:06;9.20;99.90
15900;DHT22;8048;50.644;6.184;2024-02-04T14:56:40;9.20;99.90
15900;DHT22;8048;50.644;6.184;2024-02-04T14:59:08;9.10;99.90
15900;DHT22;8048;50.644;6.184;2024-02-04T15:01:34;9.10;99.90
15900;DHT22;8048;50.644;6.184;2024-02-04T15:04:00;9.20;99.90
15900;DHT22;8048;50.644;6.184;2024-02-04T15:06:26;9.10;99.90
15900;DHT22;8048;50.644;6.184;2024-02-04T15:08:51;9.10;99.90
15900;DHT22;8048;50.644;6.184;2024-02-04T15:11:17;9.10;99.90
15900;DHT22;8048;50.644;6.184;2024-02-04T15:13:43;9.10;99.90
15900;DHT22;8048;50.644;6.184;2024-02-04T15:16:11;9.10;99.90
15900;DHT22;8048;50.644;6.184;2024-02-04T15:18:38;9.10;99.90
15900;DHT22;8048;50.644;6.184;2024-02-04T15:21:03;9.10;99.90
15900;DHT22;8048;50.644;6.184;2024-02-04T15:23:29;9.10;99.90
15900;DHT22;8048;50.644;6.184;2024-02-04T15:25:56;9.10;99.90
15900;DHT22;8048;50.644;6.184;2024-02-04T15:28:23;9.10;99.90
15900;DHT22;8048;50.644;6.184;2024-02-04T15:30:50;9.10;99.90
15900;DHT22;8048;50.644;6.184;2024-02-04T15:33:15;9.10;99.90
15900;DHT22;8048;50.644;6.184;2024-02-04T15:35:41;9.10;99.90
15900;DHT22;8048;50.644;6.184;2024-02-04T15:38:07;9.10;99.90
15900;DHT22;8048;50.644;6.184;2024-02-04T15:40:33;9.10;99.90
15900;DHT22;8048;50.644;6.184;2024-02-04T15:42:58;9.10;99.90
15900;DHT22;8048;50.644;6.184;2024-02-04T15:45:26;9.10;99.90
15900;DHT22;8048;50.644;6.184;2024-02-04T15:47:52;9.10;99.90
15900;DHT22;8048;50.644;6.184;2024-02-04T15:50:19;9.10;99.90
15900;DHT22;8048;50.644;6.184;2024-02-04T15:52:46;9.10;99.90
15900;DHT22;8048;50.644;6.184;2024-02-04T15:55:13;9.10;99.90
15900;DHT22;8048;50.644;6.184;2024-02-04T15:57:40;9.00;99.90
15900;DHT22;8048;50.644;6.184;2024-02-04T16:00:10;9.00;99.90
15900;DHT22;8048;50.644;6.184;2024-02-04T16:02:44;9.00;99.90
15900;DHT22;8048;50.644;6.184;2024-02-04T16:05:11;9.00;99.90
15900;DHT22;8048;50.644;6.184;2024-02-04T16:07:37;9.00;99.90
15900;DHT22;8048;50.644;6.184;2024-02-04T16:10:02;9.00;99.90
15900;DHT22;8048;50.644;6.184;2024-02-04T16:12:29;9.00;99.90
15900;DHT22;8048;50.644;6.184;2024-02-04T16:14:58;9.00;99.90
15900;DHT22;8048;50.644;6.184;2024-02-04T16:17:25;9.00;99.90
15900;DHT22;8048;50.644;6.184;2024-02-04T16:19:51;8.90;99.90
15900;DHT22;8048;50.644;6.184;2024-02-04T16:22:18;8.90;99.90
15900;DHT22;8048;50.644;6.184;2024-02-04T16:24:45;9.00;99.90
15900;DHT22;8048;50.644;6.184;2024-02-04T16:27:12;8.90;99.90
15900;DHT22;8048;50.644;6.184;2024-02-04T16:29:39;9.00;99.90